Time;durP1;ratioP1;P1;durP2;ratioP2;P2;SDS_P1;SDS_P2;PMS_P1;PMS_P2;Temp;Humidity;BMP_temperature;BMP_pressure;BME280_temperature;BME280_humidity;BME280_pressure;Samples;Min_cycle;Max_cycle;Signal;HPM_P1;HPM_P2
2021/04/15 00:00:58;;;;;;;5.50;3.40;;;;;;;2.83;73.39;102145.09;5061151;28;20211;-64
2021/04/15 00:03:27;;;;;;;3.73;3.00;;;;;;;2.83;73.52;102147.72;5062820;28;20243;-64
2021/04/15 00:05:56;;;;;;;3.93;3.13;;;;;;;2.79;73.13;102145.13;5059973;28;20209;-64
2021/04/15 00:08:22;;;;;;;3.87;3.47;;;;;;;2.78;73.34;102150.38;5066873;28;20208;-64
2021/04/15 00:10:51;;;;;;;5.13;3.70;;;;;;;2.74;73.86;102144.25;5060546;28;20209;-64
2021/04/15 00:13:22;;;;;;;6.37;3.97;;;;;;;2.73;73.72;102147.78;5064389;28;20224;-64
2021/04/15 00:15:48;;;;;;;4.77;3.37;;;;;;;2.70;73.74;102146.91;5051784;28;20674;-64
2021/04/15 00:18:15;;;;;;;5.20;4.20;;;;;;;2.69;73.92;102146.03;5054969;28;20209;-64
2021/04/15 00:20:41;;;;;;;5.00;3.90;;;;;;;2.65;73.80;102136.44;5059979;28;20216;-64
2021/04/15 00:23:07;;;;;;;6.87;3.57;;;;;;;2.63;73.79;102148.75;5058297;28;20587;-65
2021/04/15 00:25:33;;;;;;;7.03;3.60;;;;;;;2.60;73.85;102140.88;5061120;28;20205;-64
2021/04/15 00:27:59;;;;;;;6.57;4.27;;;;;;;2.58;74.48;102141.75;5068172;28;20205;-64
2021/04/15 00:30:26;;;;;;;9.20;4.47;;;;;;;2.55;73.87;102133.88;5068453;28;20254;-64
2021/04/15 00:32:53;;;;;;;4.57;3.77;;;;;;;2.52;73.94;102140.03;5069296;28;20229;-64
2021/04/15 00:35:20;;;;;;;6.20;4.23;;;;;;;2.48;74.64;102138.31;5069521;28;20227;-64
2021/04/15 00:37:46;;;;;;;5.87;4.50;;;;;;;2.45;74.18;102133.09;5069471;28;20216;-64
2021/04/15 00:40:14;;;;;;;4.13;3.60;;;;;;;2.43;74.44;102134.84;5069440;28;20204;-65
2021/04/15 00:42:40;;;;;;;5.90;4.13;;;;;;;2.41;74.77;102136.59;5068859;28;20224;-65
2021/04/15 00:45:09;;;;;;;4.73;3.60;;;;;;;2.39;74.46;102133.97;5065752;28;20775;-64
2021/04/15 00:47:37;;;;;;;8.37;5.07;;;;;;;2.39;75.02;102133.09;5067245;28;20205;-64
2021/04/15 00:50:08;;;;;;;7.03;4.20;;;;;;;2.36;75.07;102131.38;5065659;28;20209;-64
2021/04/15 00:52:41;;;;;;;6.87;4.23;;;;;;;2.35;74.80;102134.00;5062661;28;20216;-64
2021/04/15 00:55:11;;;;;;;4.73;4.13;;;;;;;2.33;74.99;102125.28;5066966;28;20201;-64
2021/04/15 00:57:39;;;;;;;7.37;3.83;;;;;;;2.33;75.10;102127.91;5060746;28;20201;-65
2021/04/15 01:00:09;;;;;;;5.37;4.17;;;;;;;2.32;74.99;102132.28;5063498;28;20209;-65
2021/04/15 01:02:36;;;;;;;4.77;4.10;;;;;;;2.35;75.21;102134.00;5068035;28;20672;-64
2021/04/15 01:05:09;;;;;;;6.87;4.57;;;;;;;2.36;75.16;102141.00;5067884;28;20232;-64
2021/04/15 01:07:35;;;;;;;4.40;4.00;;;;;;;2.36;75.41;102135.75;5070505;28;20201;-65
2021/04/15 01:10:01;;;;;;;7.83;4.67;;;;;;;2.36;75.43;102144.50;5065327;28;20678;-64
2021/04/15 01:12:43;;;;;;;7.70;5.13;;;;;;;2.36;75.90;102134.00;5069805;28;20207;-64
2021/04/15 01:15:23;;;;;;;5.63;4.80;;;;;;;2.37;75.85;102134.88;5061712;28;20193;-64
2021/04/15 01:17:55;;;;;;;8.57;4.40;;;;;;;2.36;75.57;102131.38;5064508;28;20799;-64
2021/04/15 01:20:55;;;;;;;7.00;4.77;;;;;;;2.36;76.16;102135.75;5062379;28;20209;-64
2021/04/15 01:23:31;;;;;;;5.50;4.70;;;;;;;2.34;75.74;102130.50;5069095;28;20579;-64
2021/04/15 01:26:19;;;;;;;6.80;4.97;;;;;;;2.35;75.88;102132.25;5067504;28;20576;-64
2021/04/15 01:29:02;;;;;;;7.13;5.23;;;;;;;2.34;75.61;102135.75;5071337;28;20239;-64
2021/04/15 01:31:59;;;;;;;6.77;5.47;;;;;;;2.33;76.16;102127.91;5065537;28;20206;-63
2021/04/15 01:34:32;;;;;;;7.80;5.77;;;;;;;2.34;75.95;102129.63;5064228;28;20256;-64
2021/04/15 01:37:04;;;;;;;6.20;5.20;;;;;;;2.32;75.86;102123.53;5068608;28;20205;-64
2021/04/15 01:39:34;;;;;;;6.50;5.43;;;;;;;2.32;75.95;102123.53;5073949;28;20204;-66
2021/04/15 01:42:05;;;;;;;6.47;5.10;;;;;;;2.32;75.85;102128.78;5072974;28;20238;-64
2021/04/15 01:44:38;;;;;;;6.93;4.83;;;;;;;2.32;76.36;102123.53;5067717;28;20691;-64
2021/04/15 01:47:09;;;;;;;6.60;4.90;;;;;;;2.30;76.55;102128.78;5074123;28;20201;-64
2021/04/15 01:49:41;;;;;;;6.90;5.10;;;;;;;2.30;76.14;102127.91;5066606;28;20586;-64
2021/04/15 01:52:11;;;;;;;7.80;4.73;;;;;;;2.28;76.41;102132.31;5069473;28;20205;-64
2021/04/15 01:54:43;;;;;;;7.40;5.13;;;;;;;2.27;76.07;102134.06;5075919;28;20216;-64
2021/04/15 01:57:13;;;;;;;6.67;5.57;;;;;;;2.26;76.27;102131.44;5067362;28;20206;-65
2021/04/15 01:59:43;;;;;;;8.03;5.33;;;;;;;2.25;75.94;102134.94;5066148;28;20201;-63
2021/04/15 02:02:15;;;;;;;6.83;6.10;;;;;;;2.24;76.28;102141.97;5065242;28;20251;-64
2021/04/15 02:04:45;;;;;;;7.33;5.73;;;;;;;2.23;76.60;102141.97;5061029;28;20235;-64
2021/04/15 02:07:14;;;;;;;9.67;5.70;;;;;;;2.23;76.66;102144.59;5069617;28;20205;-64
2021/04/15 02:09:42;;;;;;;8.93;5.63;;;;;;;2.21;76.47;102143.72;5060123;28;20201;-63
2021/04/15 02:12:13;;;;;;;8.40;6.03;;;;;;;2.22;76.17;102145.47;5069655;28;20211;-64
2021/04/15 02:14:44;;;;;;;7.30;5.73;;;;;;;2.20;76.71;102141.97;5063186;28;20220;-63
2021/04/15 02:17:12;;;;;;;9.10;6.07;;;;;;;2.18;76.99;102141.09;5064889;28;20578;-64
2021/04/15 02:19:43;;;;;;;7.13;5.60;;;;;;;2.18;76.47;102149.00;5062768;28;20204;-63
2021/04/15 02:22:16;;;;;;;7.40;5.83;;;;;;;2.15;76.27;102139.34;5067059;28;20254;-64
2021/04/15 02:24:48;;;;;;;9.03;6.23;;;;;;;2.14;77.05;102144.66;5067473;28;20319;-63
2021/04/15 02:27:19;;;;;;;6.73;5.57;;;;;;;2.11;76.84;102150.78;5070868;28;20728;-63
2021/04/15 02:29:53;;;;;;;8.77;5.53;;;;;;;2.09;76.88;102150.78;5071194;28;20216;-64
2021/04/15 02:32:25;;;;;;;8.17;6.20;;;;;;;2.07;76.69;102144.69;5060086;28;20606;-64
2021/04/15 02:34:58;;;;;;;9.47;6.63;;;;;;;2.06;76.85;102153.44;5067182;28;20198;-63
2021/04/15 02:37:29;;;;;;;8.27;6.10;;;;;;;2.05;76.98;102150.81;5068414;28;20215;-64
2021/04/15 02:40:01;;;;;;;12.20;6.30;;;;;;;2.03;76.73;102145.56;5069471;28;20209;-64
2021/04/15 02:42:29;;;;;;;7.47;6.47;;;;;;;2.01;77.05;102147.31;5065682;28;20193;-63
2021/04/15 02:45:02;;;;;;;13.63;6.37;;;;;;;2.01;76.79;102143.81;5070331;28;20292;-64
2021/04/15 02:47:42;;;;;;;10.60;6.63;;;;;;;2.00;76.93;102150.81;5067240;28;20568;-63
2021/04/15 02:50:11;;;;;;;10.33;6.67;;;;;;;1.99;77.13;102150.81;5067283;28;20208;-63
2021/04/15 02:52:40;;;;;;;9.27;6.77;;;;;;;1.99;77.23;102151.69;5062659;28;20212;-63
2021/04/15 02:55:13;;;;;;;7.43;6.07;;;;;;;1.98;77.36;102147.31;5062535;28;20663;-64
2021/04/15 02:57:43;;;;;;;8.80;7.00;;;;;;;1.98;77.52;102143.81;5062726;28;20205;-64
2021/04/15 03:00:14;;;;;;;9.80;6.73;;;;;;;1.95;77.55;102143.88;5067055;28;20578;-64
2021/04/15 03:02:57;;;;;;;9.93;6.93;;;;;;;1.97;77.26;102152.63;5063649;28;20240;-62
2021/04/15 03:05:25;;;;;;;10.17;6.63;;;;;;;1.94;77.19;102144.75;5066403;28;20236;-64
2021/04/15 03:07:55;;;;;;;10.97;7.27;;;;;;;1.94;77.67;102148.25;5070699;28;20208;-64
2021/04/15 03:10:25;;;;;;;12.80;7.47;;;;;;;1.92;77.62;102147.38;5060510;28;20553;-64
2021/04/15 03:12:55;;;;;;;10.50;6.47;;;;;;;1.90;77.43;102141.25;5064399;28;20710;-64
2021/04/15 03:15:26;;;;;;;8.57;6.70;;;;;;;1.88;77.19;102147.38;5070479;28;20220;-64
2021/04/15 03:17:59;;;;;;;12.13;8.00;;;;;;;1.84;77.34;102149.13;5069953;28;20211;-64
2021/04/15 03:20:29;;;;;;;10.43;7.20;;;;;;;1.81;77.23;102153.53;5066557;28;20469;-64
2021/04/15 03:23:00;;;;;;;12.00;7.50;;;;;;;1.79;77.58;102150.94;5058892;28;20232;-66
2021/04/15 03:25:27;;;;;;;11.70;7.53;;;;;;;1.76;77.62;102150.94;5069592;28;20601;-64
2021/04/15 03:27:59;;;;;;;12.93;7.70;;;;;;;1.76;77.49;102155.31;5065750;28;20201;-64
2021/04/15 03:30:32;;;;;;;10.07;7.33;;;;;;;1.72;77.88;102154.44;5067603;28;20205;-64
2021/04/15 03:33:06;;;;;;;13.33;7.40;;;;;;;1.68;77.60;102163.19;5065864;28;20221;-64
2021/04/15 03:35:38;;;;;;;8.90;6.80;;;;;;;1.65;77.89;102157.94;5068288;28;20556;-64
2021/04/15 03:38:11;;;;;;;10.63;8.47;;;;;;;1.63;77.97;102159.69;5059246;28;20206;-64
2021/04/15 03:40:43;;;;;;;11.73;7.83;;;;;;;1.61;77.87;102159.69;5065301;28;20211;-65
2021/04/15 03:43:14;;;;;;;10.30;7.07;;;;;;;1.61;78.14;102161.50;5063233;28;20225;-64
2021/04/15 03:45:46;;;;;;;8.30;6.87;;;;;;;1.58;78.01;102151.88;5060564;28;20224;-64
2021/04/15 03:48:20;;;;;;;11.57;7.87;;;;;;;1.55;77.71;102159.75;5064724;28;20201;-64
2021/04/15 03:50:51;;;;;;;9.23;7.13;;;;;;;1.52;77.94;102157.13;5062272;28;20204;-64
2021/04/15 03:53:21;;;;;;;10.37;7.73;;;;;;;1.50;78.24;102158.00;5067088;28;20231;-64
2021/04/15 03:55:54;;;;;;;11.27;8.43;;;;;;;1.47;78.12;102158.00;5066013;28;20262;-64
2021/04/15 03:58:23;;;;;;;15.73;7.30;;;;;;;1.43;78.26;102167.66;5061632;28;20207;-64
2021/04/15 04:00:55;;;;;;;8.87;7.37;;;;;;;1.41;78.50;102161.53;5064395;28;20224;-64
2021/04/15 04:03:26;;;;;;;13.00;8.13;;;;;;;1.38;78.25;102172.91;5073912;28;20338;-64
2021/04/15 04:05:59;;;;;;;9.57;8.00;;;;;;;1.35;78.08;102167.66;5062613;28;20217;-64
2021/04/15 04:08:35;;;;;;;13.53;8.03;;;;;;;1.35;78.65;102166.78;5072857;28;20673;-64
2021/04/15 04:11:01;;;;;;;10.50;8.07;;;;;;;1.33;78.39;102176.41;5061896;28;20232;-64
2021/04/15 04:13:30;;;;;;;11.63;8.20;;;;;;;1.30;78.58;102169.41;5072102;28;20247;-64
2021/04/15 04:16:05;;;;;;;12.57;8.30;;;;;;;1.27;78.46;102168.50;5069017;28;20258;-64
2021/04/15 04:18:42;;;;;;;10.53;7.43;;;;;;;1.25;78.66;102173.78;5067820;28;20258;-64
2021/04/15 04:21:15;;;;;;;12.33;8.70;;;;;;;1.23;78.63;102172.03;5065486;28;20204;-64
2021/04/15 04:23:47;;;;;;;11.07;8.57;;;;;;;1.21;78.65;102179.03;5064216;28;20290;-64
2021/04/15 04:26:20;;;;;;;13.87;8.67;;;;;;;1.19;78.69;102173.78;5061385;28;20562;-64
2021/04/15 04:29:12;;;;;;;13.43;8.73;;;;;;;1.17;78.86;102174.66;5063036;28;20209;-64
2021/04/15 04:31:44;;;;;;;11.73;8.80;;;;;;;1.15;78.86;102181.66;5061192;28;20205;-64
2021/04/15 04:34:12;;;;;;;14.43;9.20;;;;;;;1.13;78.97;102186.03;5063874;28;20589;-64
2021/04/15 04:36:39;;;;;;;11.37;9.00;;;;;;;1.12;79.00;102184.28;5057775;28;20201;-64
2021/04/15 04:39:07;;;;;;;10.73;8.90;;;;;;;1.12;79.01;102181.66;5063217;28;20216;-64
2021/04/15 04:41:47;;;;;;;14.63;9.43;;;;;;;1.11;79.00;102187.78;5059814;28;20216;-63
2021/04/15 04:44:18;;;;;;;10.20;8.30;;;;;;;1.09;79.11;102189.50;5058206;28;20778;-64
2021/04/15 04:46:47;;;;;;;13.67;9.43;;;;;;;1.07;79.19;102192.16;5064366;28;20616;-66
2021/04/15 04:49:21;;;;;;;15.87;9.20;;;;;;;1.06;79.35;102202.66;5057754;28;20212;-64
2021/04/15 04:51:52;;;;;;;13.40;9.80;;;;;;;1.07;79.36;102210.53;5052329;28;20202;-66
2021/04/15 04:54:21;;;;;;;14.80;8.97;;;;;;;1.06;79.12;102205.28;5062725;28;20278;-65
2021/04/15 04:56:52;;;;;;;11.67;8.57;;;;;;;1.06;79.25;102200.03;5069972;28;20227;-66
2021/04/15 04:59:23;;;;;;;13.43;8.60;;;;;;;1.04;79.56;102197.41;5066010;28;20258;-63
2021/04/15 05:01:51;;;;;;;14.43;8.83;;;;;;;1.04;79.44;102205.28;5065404;28;20206;-64
2021/04/15 05:04:19;;;;;;;14.47;9.60;;;;;;;1.02;79.48;102207.03;5065363;28;20220;-64
2021/04/15 05:06:47;;;;;;;11.60;8.83;;;;;;;1.01;79.80;102208.78;5071980;28;20286;-64
2021/04/15 05:09:20;;;;;;;14.10;9.20;;;;;;;1.02;79.82;102209.66;5061151;28;20212;-65
2021/04/15 05:11:49;;;;;;;11.43;8.77;;;;;;;1.01;79.53;102216.66;5062597;28;20209;-65
2021/04/15 05:14:17;;;;;;;15.23;9.37;;;;;;;0.99;79.62;102215.75;5066643;28;20233;-65
2021/04/15 05:16:47;;;;;;;12.97;10.20;;;;;;;1.00;79.64;102219.25;5070633;28;20242;-67
2021/04/15 05:19:14;;;;;;;13.30;10.20;;;;;;;1.02;79.92;102214.91;5072535;28;20685;-65
2021/04/15 05:21:42;;;;;;;15.87;9.97;;;;;;;1.04;79.80;102221.03;5071059;28;20200;-65
2021/04/15 05:24:15;;;;;;;14.10;10.13;;;;;;;1.07;79.84;102225.41;5069450;28;20221;-65
2021/04/15 05:26:43;;;;;;;13.30;10.03;;;;;;;1.07;79.82;102221.03;5074976;28;20254;-65
2021/04/15 05:29:15;;;;;;;14.20;10.37;;;;;;;1.10;80.00;102225.38;5066941;28;20207;-65
2021/04/15 05:31:45;;;;;;;14.67;10.03;;;;;;;1.14;80.01;102228.00;5076707;28;21401;-64
2021/04/15 05:34:21;;;;;;;16.00;9.70;;;;;;;1.18;80.44;102228.91;5068617;28;20632;-67
2021/04/15 05:36:49;;;;;;;18.03;11.30;;;;;;;1.20;79.96;102230.66;5071833;28;20208;-65
2021/04/15 05:39:18;;;;;;;15.17;10.67;;;;;;;1.24;80.11;102239.41;5069472;28;20197;-65
2021/04/15 05:41:50;;;;;;;17.53;10.13;;;;;;;1.26;80.05;102238.50;5071498;28;20213;-65
2021/04/15 05:44:21;;;;;;;14.77;10.13;;;;;;;1.29;80.09;102237.63;5071562;28;20239;-65
2021/04/15 05:46:50;;;;;;;18.33;10.67;;;;;;;1.32;80.21;102241.13;5072681;28;20577;-64
2021/04/15 05:49:21;;;;;;;14.30;9.50;;;;;;;1.38;80.09;102240.28;5075966;28;20200;-65
2021/04/15 05:51:51;;;;;;;13.97;10.70;;;;;;;1.42;80.38;102239.41;5069609;28;20205;-65
2021/04/15 05:54:19;;;;;;;16.43;10.20;;;;;;;1.48;80.19;102247.25;5068399;28;20221;-65
2021/04/15 05:56:54;;;;;;;12.43;9.27;;;;;;;1.50;80.13;102242.00;5067657;28;20615;-64
2021/04/15 05:59:27;;;;;;;15.93;10.53;;;;;;;1.52;79.98;102248.13;5054473;28;20209;-64
2021/04/15 06:02:06;;;;;;;14.30;9.23;;;;;;;1.53;80.32;102247.25;5067611;28;20205;-65
2021/04/15 06:04:38;;;;;;;13.47;10.63;;;;;;;1.53;80.18;102245.50;5065461;28;20221;-65
2021/04/15 06:07:06;;;;;;;15.97;10.40;;;;;;;1.55;80.24;102250.75;5070919;28;20228;-65
2021/04/15 06:09:32;;;;;;;16.70;10.60;;;;;;;1.59;80.43;102257.78;5069002;28;20200;-64
2021/04/15 06:12:03;;;;;;;15.47;10.43;;;;;;;1.63;80.29;102256.88;5072225;28;20201;-65
2021/04/15 06:14:40;;;;;;;14.43;9.83;;;;;;;1.69;80.34;102259.50;5071190;28;20217;-65
2021/04/15 06:17:29;;;;;;;13.07;10.93;;;;;;;1.73;80.82;102256.88;5060196;28;20197;-65
2021/04/15 06:20:03;;;;;;;12.57;9.73;;;;;;;1.79;80.64;102263.88;5071189;28;20220;-65
2021/04/15 06:22:31;;;;;;;15.90;11.17;;;;;;;1.85;80.19;102266.47;5056793;28;20208;-64
2021/04/15 06:25:03;;;;;;;19.37;10.80;;;;;;;1.89;80.34;102270.84;5064436;28;20224;-65
2021/04/15 06:27:30;;;;;;;15.47;10.23;;;;;;;1.92;80.39;102270.84;5064489;28;20697;-65
2021/04/15 06:30:01;;;;;;;16.03;11.00;;;;;;;1.95;80.70;102278.75;5065088;28;20563;-64
2021/04/15 06:32:32;;;;;;;16.60;10.97;;;;;;;2.00;80.39;102270.81;5071014;28;20201;-65
2021/04/15 06:34:59;;;;;;;14.70;10.37;;;;;;;2.05;81.04;102274.31;5069915;28;20205;-64
2021/04/15 06:37:34;;;;;;;15.60;11.57;;;;;;;2.08;80.79;102277.81;5067960;28;20662;-64
2021/04/15 06:40:24;;;;;;;18.40;13.10;;;;;;;2.14;80.30;102276.94;5068704;28;20212;-64
2021/04/15 06:43:08;;;;;;;14.03;11.30;;;;;;;2.23;80.19;102276.03;5015287;28;20275;-64
2021/04/15 06:45:52;;;;;;;16.20;10.73;;;;;;;2.30;80.56;102272.50;5067386;28;20222;-65
2021/04/15 06:48:50;;;;;;;18.07;11.53;;;;;;;2.39;81.06;102265.44;5064215;28;20247;-65
2021/04/15 06:51:43;;;;;;;15.33;11.03;;;;;;;2.53;80.85;102270.63;5067836;28;20208;-65
2021/04/15 06:54:22;;;;;;;14.83;11.67;;;;;;;2.67;81.05;102265.34;5069141;28;20216;-64
2021/04/15 06:57:10;;;;;;;14.07;11.00;;;;;;;2.77;80.75;102267.03;5068374;28;20266;-65
2021/04/15 06:59:50;;;;;;;15.20;11.33;;;;;;;2.86;81.36;102263.50;5064579;28;20224;-65
2021/04/15 07:02:36;;;;;;;15.33;10.63;;;;;;;2.97;80.51;102272.19;5062193;28;20212;-65
2021/04/15 07:05:07;;;;;;;18.73;10.90;;;;;;;3.05;80.35;102270.34;5064185;28;20270;-65
2021/04/15 07:07:37;;;;;;;16.63;11.70;;;;;;;3.12;80.34;102279.97;5064652;28;20205;-65
2021/04/15 07:10:51;;;;;;;13.60;10.70;;;;;;;3.22;80.82;102275.53;5063928;28;20256;-65
2021/04/15 07:13:41;;;;;;;14.67;10.77;;;;;;;3.32;80.36;102271.94;5002150;28;20890;-65
2021/04/15 07:16:40;;;;;;;18.47;10.90;;;;;;;3.42;79.93;102271.84;5065722;28;20231;-65
2021/04/15 07:19:50;;;;;;;18.43;10.00;;;;;;;3.57;80.00;102270.84;5064437;28;20200;-65
2021/04/15 07:22:54;;;;;;;15.77;10.90;;;;;;;3.72;79.37;102272.47;5063410;28;20197;-64
2021/04/15 07:25:34;;;;;;;14.30;10.77;;;;;;;3.83;79.59;102262.69;5068384;28;20220;-64
2021/04/15 07:28:23;;;;;;;15.10;11.00;;;;;;;3.97;79.18;102270.47;5065546;28;20213;-64
2021/04/15 07:31:18;;;;;;;14.47;10.67;;;;;;;4.07;78.60;102278.28;5066802;28;20205;-65
2021/04/15 07:34:06;;;;;;;11.87;9.73;;;;;;;4.17;78.19;102277.28;5063730;28;20698;-64
2021/04/15 07:36:43;;;;;;;14.70;10.70;;;;;;;4.26;78.21;102281.59;5063854;28;20207;-64
2021/04/15 07:40:00;;;;;;;14.10;10.03;;;;;;;4.38;77.62;102286.72;5061200;28;20288;-64
2021/04/15 07:42:48;;;;;;;11.43;9.07;;;;;;;4.50;77.23;102285.69;5020985;28;20711;-64
2021/04/15 07:45:18;;;;;;;13.07;8.93;;;;;;;4.61;76.90;102278.53;5020473;28;20751;-64
2021/04/15 07:48:17;;;;;;;10.77;8.50;;;;;;;4.75;76.64;102278.34;5050057;28;20204;-65
2021/04/15 07:51:18;;;;;;;11.47;9.00;;;;;;;4.88;75.99;102283.41;5063662;28;20682;-65
2021/04/15 07:54:19;;;;;;;12.17;9.13;;;;;;;5.00;75.33;102284.16;5062704;28;20232;-64
2021/04/15 07:57:08;;;;;;;15.30;9.63;;;;;;;5.13;75.44;102280.44;5035964;28;20202;-65
2021/04/15 08:00:22;;;;;;;14.60;10.00;;;;;;;5.31;74.62;102282.78;5063607;28;20213;-65
2021/04/15 08:03:02;;;;;;;13.93;9.57;;;;;;;5.49;74.49;102284.28;5022252;28;20229;-65
2021/04/15 08:05:38;;;;;;;11.07;8.27;;;;;;;5.65;73.90;102285.75;5019293;28;20308;-65
2021/04/15 08:08:37;;;;;;;10.63;7.60;;;;;;;5.82;72.96;102285.47;5051949;28;20209;-65
2021/04/15 08:11:44;;;;;;;8.47;7.53;;;;;;;5.92;71.60;102276.50;5064800;28;21017;-65
2021/04/15 08:14:25;;;;;;;13.00;8.23;;;;;;;6.03;71.05;102284.25;5010510;28;20624;-65
2021/04/15 08:17:17;;;;;;;9.63;7.87;;;;;;;6.12;70.68;102284.94;5049136;28;20205;-65
2021/04/15 08:20:02;;;;;;;13.00;8.13;;;;;;;6.26;70.87;102277.63;5054230;28;20219;-65
2021/04/15 08:22:52;;;;;;;11.77;8.50;;;;;;;6.40;69.81;102287.06;5057193;28;20230;-65
2021/04/15 08:25:26;;;;;;;9.40;7.30;;;;;;;6.54;68.84;102292.94;5056078;28;20233;-64
2021/04/15 08:28:05;;;;;;;11.00;7.67;;;;;;;6.66;68.54;102283.84;5059728;28;20204;-65
2021/04/15 08:30:51;;;;;;;8.47;6.60;;;;;;;6.77;67.12;102281.88;5060787;28;20201;-66
2021/04/15 08:33:48;;;;;;;10.73;7.20;;;;;;;6.89;65.55;102292.19;5062250;28;20220;-65
2021/04/15 08:37:04;;;;;;;8.13;6.07;;;;;;;6.98;64.71;102286.72;5059385;28;20742;-65
2021/04/15 08:39:40;;;;;;;8.50;6.27;;;;;;;7.07;64.83;102282.97;5026918;28;20705;-65
2021/04/15 08:42:17;;;;;;;10.67;7.13;;;;;;;7.21;64.15;102287.03;5059568;28;20204;-65
2021/04/15 08:44:58;;;;;;;13.77;7.20;;;;;;;7.27;63.27;102275.41;5060111;28;20228;-65
2021/04/15 08:47:41;;;;;;;12.63;8.47;;;;;;;7.29;63.36;102282.44;5059978;28;20702;-66
2021/04/15 08:50:16;;;;;;;13.87;7.33;;;;;;;7.33;62.86;102291.19;5061225;28;21280;-66
2021/04/15 08:52:44;;;;;;;11.27;7.03;;;;;;;7.36;63.11;102293.75;5058995;28;20266;-66
2021/04/15 08:55:32;;;;;;;10.47;7.87;;;;;;;7.42;63.40;102283.00;5059802;28;20563;-66
2021/04/15 08:58:15;;;;;;;8.03;4.77;;;;;;;7.46;62.15;102282.03;5056801;28;20572;-66
2021/04/15 09:00:46;;;;;;;10.80;5.17;;;;;;;7.48;60.90;102277.56;5058835;28;20211;-66
2021/04/15 09:03:24;;;;;;;7.50;5.40;;;;;;;7.54;59.91;102279.16;5080075;22;20213;-65
2021/04/15 09:06:15;;;;;;;8.53;5.30;;;;;;;7.66;60.00;102285.06;5075264;28;20593;-66
2021/04/15 09:08:53;;;;;;;8.90;4.97;;;;;;;7.79;60.73;102280.31;5061585;28;20217;-65
2021/04/15 09:11:27;;;;;;;9.23;5.57;;;;;;;7.92;59.36;102275.53;5071766;28;20205;-66
2021/04/15 09:14:02;;;;;;;9.70;4.97;;;;;;;8.05;59.52;102274.31;5078204;28;20220;-66
2021/04/15 09:16:35;;;;;;;8.00;4.93;;;;;;;8.09;57.84;102278.59;5079351;28;20208;-65
2021/04/15 09:19:16;;;;;;;12.43;6.07;;;;;;;8.15;57.97;102275.78;5069567;28;20565;-65
2021/04/15 09:21:54;;;;;;;9.83;5.47;;;;;;;8.25;56.49;102277.28;5077539;28;20806;-63
2021/04/15 09:24:36;;;;;;;9.43;5.50;;;;;;;8.34;57.27;102278.84;5076250;28;20234;-65
2021/04/15 09:27:24;;;;;;;7.10;4.70;;;;;;;8.46;56.24;102272.31;5080933;28;20204;-65
2021/04/15 09:30:00;;;;;;;7.37;4.20;;;;;;;8.59;54.58;102271.94;5073336;28;20432;-64
2021/04/15 09:32:38;;;;;;;9.43;4.23;;;;;;;8.67;53.86;102275.22;5075637;28;20205;-64
2021/04/15 09:35:18;;;;;;;8.20;4.50;;;;;;;8.74;53.41;102270.59;5078519;28;20212;-63
2021/04/15 09:38:35;;;;;;;8.17;4.40;;;;;;;8.83;52.33;102270.31;5069655;28;20201;-65
2021/04/15 09:41:29;;;;;;;5.97;3.60;;;;;;;8.90;52.06;102260.38;5011304;28;20761;-63
2021/04/15 09:44:07;;;;;;;7.33;4.60;;;;;;;8.97;51.71;102264.56;5012986;28;20226;-65
2021/04/15 09:46:46;;;;;;;7.33;4.13;;;;;;;9.05;50.67;102263.41;5043256;28;20756;-65
2021/04/15 09:49:49;;;;;;;7.93;3.70;;;;;;;9.13;50.42;102264.97;5061373;28;20211;-66
2021/04/15 09:52:41;;;;;;;4.30;1.97;;;;;;;9.25;49.39;102259.25;5056481;28;20266;-65
2021/04/15 09:55:23;;;;;;;4.73;2.33;;;;;;;9.27;47.15;102255.63;5064485;28;20220;-63
2021/04/15 09:57:56;;;;;;;5.53;2.47;;;;;;;9.26;46.22;102255.69;5062747;28;20206;-65
2021/04/15 10:00:28;;;;;;;5.70;2.30;;;;;;;9.27;46.54;102250.31;5060425;28;20205;-65
2021/04/15 10:03:17;;;;;;;5.27;2.30;;;;;;;9.33;46.61;102254.56;5061519;28;20201;-66
2021/04/15 10:06:02;;;;;;;4.67;3.00;;;;;;;9.40;46.73;102249.00;5068085;28;20229;-65
2021/04/15 10:08:46;;;;;;;1.57;1.00;;;;;;;9.52;44.93;102246.84;5067031;28;21811;-68
2021/04/15 10:11:26;;;;;;;3.30;1.40;;;;;;;9.49;43.56;102245.19;5063724;28;20212;-66
2021/04/15 10:14:15;;;;;;;3.57;1.30;;;;;;;9.53;43.43;102243.25;5058910;28;20236;-65
2021/04/15 10:16:49;;;;;;;2.80;1.27;;;;;;;9.57;42.08;102240.44;5060429;28;20224;-66
2021/04/15 10:19:48;;;;;;;1.80;1.03;;;;;;;9.59;41.59;102243.94;5059718;28;20221;-68
2021/04/15 10:22:28;;;;;;;1.97;1.13;;;;;;;9.64;40.73;102236.66;5061523;28;20627;-66
2021/04/15 10:25:03;;;;;;;2.67;0.97;;;;;;;9.70;40.68;102235.56;5071533;28;20246;-66
2021/04/15 10:27:59;;;;;;;3.30;1.20;;;;;;;9.79;40.51;102239.72;5083098;28;20354;-66
2021/04/15 10:30:39;;;;;;;2.43;1.30;;;;;;;9.88;39.91;102234.94;5069962;28;20220;-66
2021/04/15 10:33:34;;;;;;;2.17;1.23;;;;;;;9.83;39.40;102230.72;5064305;28;20208;-66
2021/04/15 10:36:32;;;;;;;6.20;1.50;;;;;;;9.84;39.91;102229.78;5056617;28;20208;-67
2021/04/15 10:39:37;;;;;;;3.13;1.30;;;;;;;9.84;40.13;102224.47;5060424;28;20203;-66
2021/04/15 10:42:40;;;;;;;4.77;1.70;;;;;;;9.85;38.95;102231.53;5073876;28;20214;-65
2021/04/15 10:45:23;;;;;;;1.50;1.40;;;;;;;9.84;38.95;102227.13;5074996;28;20274;-65
2021/04/15 10:48:08;;;;;;;6.50;1.87;;;;;;;9.86;38.98;102226.13;5067647;28;20196;-66
2021/04/15 10:50:50;;;;;;;3.50;1.30;;;;;;;9.95;39.88;102224.94;5071552;28;20205;-66
2021/04/15 10:53:40;;;;;;;2.07;1.30;;;;;;;10.01;39.31;102209.63;5062889;28;21432;-66
2021/04/15 10:56:09;;;;;;;3.20;1.60;;;;;;;10.09;39.38;102206.69;5071251;28;20213;-66
2021/04/15 10:58:38;;;;;;;3.40;1.50;;;;;;;10.22;40.05;102201.78;5068855;28;20217;-66
2021/04/15 11:01:20;;;;;;;2.27;1.30;;;;;;;10.27;39.68;102205.16;5071091;28;20205;-65
2021/04/15 11:03:48;;;;;;;2.70;1.27;;;;;;;10.24;39.28;102202.59;5063773;28;20654;-65
2021/04/15 11:06:36;;;;;;;3.23;1.43;;;;;;;10.21;39.14;102200.94;5069488;28;20724;-64
2021/04/15 11:09:18;;;;;;;4.23;1.50;;;;;;;10.23;39.34;102198.22;5070916;28;20246;-65
2021/04/15 11:11:54;;;;;;;2.03;1.30;;;;;;;10.21;39.12;102198.25;5073325;28;20215;-65
2021/04/15 11:14:20;;;;;;;1.70;1.27;;;;;;;10.22;39.66;102202.66;5077130;28;20228;-65
2021/04/15 11:16:48;;;;;;;1.80;1.27;;;;;;;10.17;39.43;102201.97;5072099;28;20200;-66
2021/04/15 11:19:16;;;;;;;2.10;1.10;;;;;;;10.14;39.42;102191.41;5078606;28;20204;-64
2021/04/15 11:21:43;;;;;;;1.90;1.50;;;;;;;10.08;38.92;102195.16;5074477;28;20212;-67
2021/04/15 11:24:32;;;;;;;3.90;1.47;;;;;;;10.04;40.04;102188.22;5078639;28;20234;-66
2021/04/15 11:27:00;;;;;;;2.37;1.63;;;;;;;10.04;39.70;102187.34;5076232;28;20204;-65
2021/04/15 11:29:29;;;;;;;3.60;2.00;;;;;;;10.02;40.40;102190.09;5076545;28;20208;-64
2021/04/15 11:31:56;;;;;;;2.60;1.70;;;;;;;9.99;40.67;102192.84;5075747;28;20205;-66
2021/04/15 11:34:26;;;;;;;3.30;1.93;;;;;;;9.99;40.85;102179.53;5076896;28;20220;-67
2021/04/15 11:37:02;;;;;;;2.60;1.50;;;;;;;9.98;41.34;102188.44;5075416;28;20205;-66
2021/04/15 11:39:31;;;;;;;3.50;1.50;;;;;;;9.98;40.84;102183.13;5080114;28;20204;-65
2021/04/15 11:42:02;;;;;;;3.53;1.50;;;;;;;9.96;40.80;102187.63;5071039;28;20211;-67
2021/04/15 11:44:43;;;;;;;2.40;1.73;;;;;;;9.91;41.36;102186.06;5066820;28;20256;-67
2021/04/15 11:47:15;;;;;;;3.80;1.60;;;;;;;9.84;40.83;102179.25;5072421;28;20204;-67
2021/04/15 11:49:44;;;;;;;3.73;1.70;;;;;;;9.80;40.98;102182.91;5065811;28;20212;-68
2021/04/15 11:52:23;;;;;;;2.83;1.50;;;;;;;9.74;41.05;102190.19;5066868;28;20216;-68
2021/04/15 11:55:14;;;;;;;1.37;1.20;;;;;;;9.68;41.59;102182.41;5065057;28;20225;-69
2021/04/15 11:57:42;;;;;;;2.43;1.40;;;;;;;9.63;41.67;102183.53;5066692;28;20197;-68
2021/04/15 12:00:21;;;;;;;3.17;1.67;;;;;;;9.61;42.12;102188.88;5074460;28;20205;-64
2021/04/15 12:03:03;;;;;;;1.40;0.90;;;;;;;9.57;41.47;102176.63;5069211;28;20260;-70
2021/04/15 12:05:32;;;;;;;2.80;1.00;;;;;;;9.51;40.52;102175.94;5063433;28;20793;-65
2021/04/15 12:08:01;;;;;;;1.83;1.17;;;;;;;9.50;41.32;102180.41;5071394;28;20270;-65
2021/04/15 12:10:31;;;;;;;3.73;1.03;;;;;;;9.54;41.14;102173.19;5070785;28;20341;-65